Time;durP1;ratioP1;P1;durP2;ratioP2;P2;SDS_P1;SDS_P2;PMS_P1;PMS_P2;Temp;Humidity;BMP_temperature;BMP_pressure;BME280_temperature;BME280_humidity;BME280_pressure;Samples;Min_cycle;Max_cycle;Signal;HPM_P1;HPM_P2
2023/10/07 00:02:59;;;;;;;1.17;0.93;;;18.80;74.00;;;;;;6157161;23;20154;-85
2023/10/07 00:05:32;;;;;;;1.45;0.93;;;18.80;73.80;;;;;;6131583;23;20183;-86
2023/10/07 00:08:00;;;;;;;1.35;1.20;;;18.80;73.80;;;;;;6107843;23;20190;-85
2023/10/07 00:10:30;;;;;;;1.30;1.13;;;18.80;73.80;;;;;;6107649;23;20144;-86
2023/10/07 00:12:57;;;;;;;1.35;1.25;;;18.90;74.00;;;;;;6155745;23;20128;-85
2023/10/07 00:15:29;;;;;;;1.67;1.10;;;18.80;73.90;;;;;;6131153;23;20139;-85
2023/10/07 00:18:11;;;;;;;1.08;0.98;;;18.80;73.80;;;;;;6082606;23;20289;-84
2023/10/07 00:20:41;;;;;;;1.90;1.20;;;18.80;73.80;;;;;;6134749;23;20139;-85
2023/10/07 00:23:12;;;;;;;1.23;1.00;;;18.80;73.80;;;;;;6107883;23;20139;-84
2023/10/07 00:25:38;;;;;;;1.13;1.00;;;18.80;74.10;;;;;;6106689;23;20576;-85
2023/10/07 00:30:46;;;;;;;1.23;1.00;;;18.80;74.00;;;;;;6110574;23;20155;-85
2023/10/07 00:33:14;;;;;;;1.05;0.90;;;18.80;74.10;;;;;;6106720;23;20151;-85
2023/10/07 00:35:40;;;;;;;1.15;0.90;;;18.80;74.90;;;;;;6106944;23;20574;-85
2023/10/07 00:38:14;;;;;;;1.30;1.20;;;18.80;74.10;;;;;;6106786;23;20210;-84
2023/10/07 00:40:52;;;;;;;1.63;1.10;;;18.80;74.20;;;;;;6109140;23;20151;-86
2023/10/07 00:43:26;;;;;;;1.23;1.10;;;18.70;74.00;;;;;;6084752;23;20233;-85
2023/10/07 00:45:59;;;;;;;1.15;0.98;;;18.70;74.00;;;;;;6132122;23;20174;-85
2023/10/07 00:48:38;;;;;;;2.65;1.20;;;18.80;74.10;;;;;;6132603;23;20194;-84
2023/10/07 00:51:11;;;;;;;1.95;1.17;;;18.80;74.00;;;;;;6111792;23;20144;-85
2023/10/07 00:53:45;;;;;;;1.50;1.00;;;18.80;74.00;;;;;;6107962;23;20174;-85
2023/10/07 00:56:13;;;;;;;2.10;1.25;;;18.70;74.20;;;;;;6132099;23;20556;-85
2023/10/07 00:58:41;;;;;;;1.10;1.00;;;18.70;74.10;;;;;;6155418;23;20238;-86
2023/10/07 01:01:13;;;;;;;1.30;1.00;;;18.70;74.10;;;;;;6131223;23;20143;-85
2023/10/07 01:06:22;;;;;;;1.30;0.93;;;18.70;74.00;;;;;;6155999;23;20170;-85
2023/10/07 01:08:56;;;;;;;1.35;1.10;;;18.70;74.10;;;;;;6109160;23;20157;-86
2023/10/07 01:11:24;;;;;;;1.83;1.10;;;18.70;74.10;;;;;;6132299;23;20576;-86
2023/10/07 01:13:57;;;;;;;1.48;1.17;;;18.70;74.00;;;;;;6107845;23;20144;-85
2023/10/07 01:16:27;;;;;;;1.20;1.10;;;18.70;74.10;;;;;;6082939;23;20165;-85
2023/10/07 01:19:13;;;;;;;1.58;1.10;;;18.70;74.10;;;;;;6083507;23;20186;-85
2023/10/07 01:21:55;;;;;;;1.52;1.20;;;18.70;74.20;;;;;;6156611;23;20155;-85
2023/10/07 01:24:33;;;;;;;1.50;1.10;;;18.70;74.10;;;;;;6132181;23;20123;-83
2023/10/07 01:27:06;;;;;;;1.40;1.20;;;18.70;74.20;;;;;;6111606;23;20127;-84
2023/10/07 01:29:34;;;;;;;1.90;1.15;;;18.70;74.10;;;;;;6084567;23;20538;-84
2023/10/07 01:31:59;;;;;;;2.10;1.20;;;18.70;74.20;;;;;;6083150;23;20136;-84
2023/10/07 01:34:30;;;;;;;1.40;1.10;;;18.70;74.30;;;;;;6082529;23;20147;-86
2023/10/07 01:37:00;;;;;;;1.40;1.23;;;18.70;74.10;;;;;;6083166;23;20643;-86
2023/10/07 01:39:30;;;;;;;1.50;1.00;;;18.70;74.10;;;;;;6131562;23;20176;-85
2023/10/07 01:42:01;;;;;;;1.45;1.00;;;18.70;74.20;;;;;;6082733;23;20155;-85
2023/10/07 01:44:32;;;;;;;1.52;1.00;;;18.70;74.10;;;;;;6107789;23;20135;-86
2023/10/07 01:46:58;;;;;;;1.20;1.10;;;18.70;74.10;;;;;;6057613;23;20162;-85
2023/10/07 01:49:23;;;;;;;1.63;1.08;;;18.70;74.20;;;;;;6130413;23;20135;-85
2023/10/07 01:51:53;;;;;;;1.55;1.10;;;18.70;74.20;;;;;;6106090;23;20144;-85
2023/10/07 01:54:20;;;;;;;1.20;1.00;;;18.60;74.10;;;;;;6080450;23;20174;-86
2023/10/07 01:56:48;;;;;;;1.35;1.10;;;18.80;74.40;;;;;;6106429;23;20154;-86
2023/10/07 02:01:51;;;;;;;0.80;0.80;;;18.70;74.20;;;;;;6131874;23;20440;-86
2023/10/07 02:04:18;;;;;;;1.58;1.00;;;18.70;74.30;;;;;;6083661;23;20154;-86
2023/10/07 02:06:52;;;;;;;1.27;1.15;;;18.70;74.20;;;;;;6082164;23;20143;-86
2023/10/07 02:09:27;;;;;;;1.23;0.90;;;18.70;74.30;;;;;;6109299;23;20128;-85
2023/10/07 02:11:54;;;;;;;2.25;1.20;;;18.70;74.20;;;;;;6132390;23;20567;-85
2023/10/07 02:14:24;;;;;;;2.08;1.23;;;18.70;74.30;;;;;;6130631;23;20568;-85
2023/10/07 02:16:50;;;;;;;1.45;1.20;;;18.70;74.30;;;;;;6084220;23;20190;-85
2023/10/07 02:19:27;;;;;;;1.40;1.15;;;18.70;74.20;;;;;;6130307;23;20168;-85
2023/10/07 02:21:59;;;;;;;1.48;1.13;;;18.60;74.20;;;;;;6132369;23;20214;-84
2023/10/07 02:24:29;;;;;;;1.33;1.08;;;18.70;74.20;;;;;;6131299;23;20147;-85
2023/10/07 02:27:17;;;;;;;1.60;1.13;;;18.70;74.40;;;;;;6106615;23;20171;-85
2023/10/07 02:29:43;;;;;;;1.10;0.90;;;18.70;74.50;;;;;;6089082;23;20158;-86
2023/10/07 02:32:14;;;;;;;1.23;0.95;;;18.60;74.30;;;;;;6130061;23;20568;-85
2023/10/07 02:34:51;;;;;;;1.38;1.17;;;18.60;74.40;;;;;;6154712;23;20148;-85
2023/10/07 02:37:22;;;;;;;1.15;0.98;;;18.60;74.30;;;;;;6110066;23;20595;-85
2023/10/07 02:39:50;;;;;;;1.20;1.08;;;18.60;74.10;;;;;;6129790;23;20171;-84
2023/10/07 02:47:37;;;;;;;1.35;1.10;;;18.60;74.20;;;;;;6154415;23;20136;-85
2023/10/07 02:50:07;;;;;;;1.33;0.90;;;18.60;74.20;;;;;;6105738;23;20171;-85
2023/10/07 02:52:37;;;;;;;1.83;1.02;;;18.60;74.30;;;;;;6081355;23;20179;-85
2023/10/07 02:55:26;;;;;;;2.17;1.00;;;18.60;74.30;;;;;;6081207;23;20182;-85
2023/10/07 02:57:58;;;;;;;1.17;1.00;;;18.60;74.20;;;;;;6115043;23;20158;-85
2023/10/07 03:00:35;;;;;;;1.05;0.93;;;18.60;74.40;;;;;;6110173;23;20135;-84
2023/10/07 03:05:46;;;;;;;1.80;1.17;;;18.60;74.10;;;;;;6135287;23;20132;-84
2023/10/07 03:08:19;;;;;;;1.55;1.00;;;18.60;74.00;;;;;;6155986;23;20583;-85
2023/10/07 03:11:03;;;;;;;1.60;1.23;;;18.60;74.00;;;;;;6084687;23;20487;-84
2023/10/07 03:13:37;;;;;;;1.52;1.00;;;18.70;74.10;;;;;;6134023;23;20168;-85
2023/10/07 03:19:05;;;;;;;1.75;1.20;;;18.60;74.50;;;;;;6135025;23;20207;-85
2023/10/07 03:21:55;;;;;;;2.17;1.05;;;18.60;74.10;;;;;;6115084;23;20147;-84
2023/10/07 03:24:29;;;;;;;1.95;1.17;;;18.60;74.20;;;;;;6116809;23;20157;-85
2023/10/07 03:27:11;;;;;;;1.48;1.10;;;18.60;74.30;;;;;;6112111;23;20505;-84
2023/10/07 03:29:58;;;;;;;1.38;1.02;;;18.60;74.20;;;;;;6112647;23;20183;-84
2023/10/07 03:32:32;;;;;;;1.55;1.02;;;18.60;73.70;;;;;;6094492;23;20151;-84
2023/10/07 03:35:01;;;;;;;1.00;0.90;;;18.70;73.80;;;;;;6134878;23;20134;-85
2023/10/07 03:37:30;;;;;;;1.65;1.10;;;18.60;74.00;;;;;;6108334;23;20178;-85
2023/10/07 03:42:38;;;;;;;1.40;1.00;;;18.60;74.20;;;;;;6136225;23;20140;-85
2023/10/07 03:45:04;;;;;;;1.95;1.15;;;18.70;73.80;;;;;;6133386;23;20128;-86
2023/10/07 03:47:32;;;;;;;1.08;0.98;;;18.70;73.70;;;;;;6160976;23;20136;-84
2023/10/07 03:50:20;;;;;;;1.38;1.15;;;18.70;74.10;;;;;;6135209;23;20155;-83
2023/10/07 03:52:50;;;;;;;1.00;0.90;;;18.60;73.30;;;;;;6137116;23;20483;-85
2023/10/07 03:55:16;;;;;;;2.08;0.90;;;18.60;73.50;;;;;;6159323;23;20147;-85
2023/10/07 03:57:43;;;;;;;1.20;0.85;;;18.70;73.20;;;;;;6133807;23;20138;-84
2023/10/07 04:00:11;;;;;;;1.25;1.00;;;18.70;73.40;;;;;;6157952;23;20610;-85
2023/10/07 04:02:41;;;;;;;1.52;1.00;;;18.60;73.30;;;;;;6157928;23;20679;-85
2023/10/07 04:05:12;;;;;;;1.25;1.08;;;18.70;73.30;;;;;;6110223;23;20515;-85
2023/10/07 04:07:39;;;;;;;1.95;1.00;;;18.70;73.50;;;;;;6157856;23;20132;-85
2023/10/07 04:12:47;;;;;;;1.10;1.00;;;18.70;73.40;;;;;;6136618;23;20140;-84
2023/10/07 04:15:17;;;;;;;1.45;1.00;;;18.70;73.60;;;;;;6109538;23;20147;-84
2023/10/07 04:17:44;;;;;;;1.65;1.00;;;18.70;73.60;;;;;;6133427;23;20191;-85
2023/10/07 04:20:19;;;;;;;1.38;1.00;;;18.70;73.60;;;;;;6133185;23;20198;-84
2023/10/07 04:22:57;;;;;;;0.95;0.90;;;18.70;73.80;;;;;;6086964;23;20161;-85
2023/10/07 04:25:25;;;;;;;1.30;1.10;;;18.70;73.70;;;;;;6113707;23;20226;-85
2023/10/07 04:27:57;;;;;;;1.48;1.00;;;18.70;73.70;;;;;;6083424;23;20246;-84
2023/10/07 04:30:38;;;;;;;1.42;0.98;;;18.70;73.80;;;;;;6108060;23;20162;-85
2023/10/07 04:33:08;;;;;;;1.10;1.00;;;18.70;73.60;;;;;;6134554;23;20147;-85
2023/10/07 04:35:35;;;;;;;0.95;0.88;;;18.70;73.80;;;;;;6084799;23;20151;-85
2023/10/07 04:43:36;;;;;;;1.67;0.95;;;18.70;73.30;;;;;;6157661;23;20166;-84
2023/10/07 04:46:06;;;;;;;1.02;0.90;;;18.70;73.70;;;;;;6112413;23;20139;-85
2023/10/07 04:48:54;;;;;;;2.05;0.90;;;18.70;73.30;;;;;;6133877;23;20166;-84
2023/10/07 04:51:25;;;;;;;1.73;1.08;;;18.70;73.60;;;;;;6115272;23;20241;-84
2023/10/07 04:53:57;;;;;;;1.02;0.93;;;18.70;73.60;;;;;;6110049;23;20144;-85
2023/10/07 04:56:25;;;;;;;0.80;0.80;;;18.70;73.10;;;;;;6111073;23;20139;-85
2023/10/07 04:58:54;;;;;;;1.00;0.90;;;18.70;73.30;;;;;;6132765;23;20332;-84
2023/10/07 05:01:41;;;;;;;1.20;1.08;;;18.60;73.20;;;;;;6132714;23;20147;-84
2023/10/07 05:04:09;;;;;;;1.63;1.20;;;18.70;73.00;;;;;;6157210;23;20155;-84
2023/10/07 05:06:40;;;;;;;0.82;0.82;;;18.70;73.30;;;;;;6109562;23;20148;-85
2023/10/07 05:09:09;;;;;;;2.13;1.10;;;18.70;72.70;;;;;;6084116;23;20186;-85
2023/10/07 05:11:40;;;;;;;1.15;0.80;;;18.70;73.00;;;;;;6133642;23;20155;-85
2023/10/07 05:14:07;;;;;;;1.13;0.88;;;18.70;73.30;;;;;;6159077;23;20192;-85
2023/10/07 05:16:37;;;;;;;1.10;0.90;;;18.80;73.00;;;;;;6136720;23;20192;-85
2023/10/07 05:19:08;;;;;;;1.00;0.90;;;18.70;73.20;;;;;;6065570;23;20196;-84
2023/10/07 05:21:38;;;;;;;1.42;1.08;;;18.70;73.20;;;;;;6142591;23;20160;-85
2023/10/07 05:24:09;;;;;;;1.05;0.95;;;18.80;72.80;;;;;;6141779;23;20186;-85
2023/10/07 05:26:40;;;;;;;1.92;1.23;;;18.80;72.70;;;;;;6114661;23;20151;-84
2023/10/07 05:29:07;;;;;;;2.28;0.90;;;18.70;72.80;;;;;;6067115;23;20594;-86
2023/10/07 05:31:33;;;;;;;1.13;0.88;;;18.80;72.30;;;;;;6137729;23;20185;-85
2023/10/07 05:33:59;;;;;;;1.00;0.90;;;18.70;72.90;;;;;;6138112;23;20494;-84
2023/10/07 05:36:29;;;;;;;1.02;0.80;;;18.80;72.50;;;;;;6137049;23;20147;-84
2023/10/07 05:38:55;;;;;;;0.85;0.85;;;18.80;72.00;;;;;;6113664;23;20194;-85
2023/10/07 05:41:25;;;;;;;1.40;0.95;;;18.80;72.00;;;;;;6111722;23;20238;-84
2023/10/07 05:43:51;;;;;;;1.20;1.00;;;18.80;72.10;;;;;;6087893;23;20205;-84
2023/10/07 05:46:19;;;;;;;1.13;0.95;;;18.80;72.00;;;;;;6159923;23;20127;-85
2023/10/07 05:48:46;;;;;;;1.80;0.90;;;18.80;72.00;;;;;;6160528;23;20594;-86
2023/10/07 05:51:13;;;;;;;1.30;1.10;;;18.70;72.40;;;;;;6086274;23;20724;-86
2023/10/07 05:53:41;;;;;;;1.42;1.00;;;18.80;72.50;;;;;;6085465;23;20158;-85
2023/10/07 05:56:11;;;;;;;1.98;0.82;;;18.80;72.10;;;;;;6111028;23;20139;-85
2023/10/07 05:58:39;;;;;;;0.75;0.75;;;18.80;72.30;;;;;;6109972;23;20200;-85
2023/10/07 06:01:05;;;;;;;1.00;0.90;;;18.80;72.90;;;;;;6135102;23;20270;-84
2023/10/07 06:03:32;;;;;;;0.98;0.88;;;18.80;72.10;;;;;;6137215;23;20601;-85
2023/10/07 06:05:58;;;;;;;1.08;0.80;;;18.90;71.70;;;;;;6161775;23;20131;-85
2023/10/07 06:08:26;;;;;;;1.45;0.90;;;18.80;71.90;;;;;;6187904;23;20139;-84
2023/10/07 06:10:56;;;;;;;1.05;0.90;;;18.80;71.90;;;;;;6138852;23;20139;-84
2023/10/07 06:13:27;;;;;;;1.35;1.00;;;18.80;71.60;;;;;;6115995;23;20143;-85
2023/10/07 06:15:55;;;;;;;1.40;1.00;;;18.80;72.10;;;;;;6086857;23;20747;-84
2023/10/07 06:18:22;;;;;;;1.00;0.90;;;18.90;71.50;;;;;;6059197;23;20195;-84
2023/10/07 06:20:48;;;;;;;0.75;0.60;;;18.80;71.50;;;;;;6106406;23;20242;-85
2023/10/07 06:23:15;;;;;;;1.00;0.90;;;18.80;71.20;;;;;;6130883;23;20587;-84
2023/10/07 06:25:48;;;;;;;1.00;0.90;;;18.90;71.70;;;;;;6154691;23;20133;-85
2023/10/07 06:31:11;;;;;;;1.33;1.10;;;18.90;71.20;;;;;;6155658;23;20139;-85
2023/10/07 06:33:39;;;;;;;1.63;1.10;;;18.90;71.50;;;;;;6129483;23;20605;-85
2023/10/07 06:36:07;;;;;;;1.05;0.88;;;18.90;71.30;;;;;;6131642;23;20166;-85
2023/10/07 06:38:33;;;;;;;0.98;0.80;;;18.90;70.80;;;;;;6156299;23;20171;-86
2023/10/07 06:40:59;;;;;;;0.95;0.80;;;18.90;70.70;;;;;;6131256;23;20143;-85
2023/10/07 06:43:25;;;;;;;1.00;0.80;;;19.00;69.20;;;;;;6132068;23;20472;-86
2023/10/07 06:45:55;;;;;;;1.33;1.15;;;18.90;68.10;;;;;;6108821;23;20540;-86
2023/10/07 06:48:24;;;;;;;0.95;0.85;;;18.90;67.30;;;;;;6106944;23;20202;-84
2023/10/07 06:50:54;;;;;;;0.80;0.70;;;18.90;66.90;;;;;;6107111;23;20158;-84
2023/10/07 06:53:22;;;;;;;1.05;0.70;;;18.90;67.20;;;;;;6104438;23;20239;-83
2023/10/07 06:55:51;;;;;;;1.02;0.80;;;18.90;66.30;;;;;;6107099;23;20139;-87
2023/10/07 06:58:22;;;;;;;1.13;0.80;;;18.90;66.00;;;;;;6131930;23;20202;-84
2023/10/07 07:00:56;;;;;;;0.93;0.60;;;18.80;65.20;;;;;;6156490;23;20124;-85
2023/10/07 07:03:27;;;;;;;0.70;0.50;;;18.90;66.00;;;;;;6131645;23;20181;-84
2023/10/07 07:05:54;;;;;;;1.20;0.75;;;18.80;64.70;;;;;;6082182;23;20162;-86
2023/10/07 07:08:22;;;;;;;0.73;0.70;;;18.80;64.50;;;;;;6131528;23;20135;-84
2023/10/07 07:10:55;;;;;;;0.57;0.57;;;18.80;64.00;;;;;;6112371;23;20144;-85
2023/10/07 07:13:27;;;;;;;0.80;0.73;;;18.70;63.40;;;;;;6117417;23;20179;-85
2023/10/07 07:15:57;;;;;;;1.05;0.65;;;18.80;63.80;;;;;;6139609;23;20132;-85
2023/10/07 07:18:27;;;;;;;0.80;0.70;;;18.80;63.00;;;;;;6136812;23;20187;-84
2023/10/07 07:21:00;;;;;;;0.77;0.70;;;18.90;62.80;;;;;;6112958;23;20226;-85
2023/10/07 07:23:40;;;;;;;1.08;0.80;;;18.80;61.80;;;;;;6138809;23;20178;-85
2023/10/07 07:26:11;;;;;;;0.60;0.60;;;18.80;61.50;;;;;;6137104;23;20127;-83
2023/10/07 07:28:46;;;;;;;0.80;0.65;;;18.90;61.10;;;;;;6110944;23;20251;-85
2023/10/07 07:31:19;;;;;;;0.65;0.50;;;18.80;60.70;;;;;;6113110;23;20143;-85
2023/10/07 07:33:48;;;;;;;0.93;0.77;;;18.80;60.40;;;;;;6109797;23;20246;-85
2023/10/07 07:39:09;;;;;;;0.60;0.60;;;18.90;60.70;;;;;;6161622;23;20182;-85
2023/10/07 07:41:38;;;;;;;0.50;0.50;;;18.80;59.70;;;;;;6112419;23;20607;-84
2023/10/07 07:44:11;;;;;;;0.55;0.50;;;18.80;59.30;;;;;;6115371;23;20583;-84
2023/10/07 07:46:56;;;;;;;0.55;0.55;;;18.80;59.20;;;;;;6104187;23;20263;-86
2023/10/07 07:49:27;;;;;;;0.77;0.55;;;18.80;59.00;;;;;;6083775;23;20160;-84
2023/10/07 07:52:00;;;;;;;0.73;0.47;;;18.80;59.30;;;;;;6104873;23;20129;-86
2023/10/07 07:54:26;;;;;;;1.00;0.60;;;18.80;58.70;;;;;;6077496;23;20158;-85
2023/10/07 07:56:54;;;;;;;0.60;0.52;;;18.80;58.30;;;;;;6079100;23;20175;-85
2023/10/07 07:59:20;;;;;;;0.50;0.50;;;18.80;58.00;;;;;;6107141;23;20550;-85
2023/10/07 08:01:53;;;;;;;0.40;0.40;;;18.80;58.10;;;;;;6079774;23;20148;-83
2023/10/07 08:04:37;;;;;;;0.40;0.40;;;18.80;58.00;;;;;;6107099;23;20327;-86
2023/10/07 08:07:06;;;;;;;0.63;0.50;;;18.80;57.90;;;;;;6105508;23;20159;-85
2023/10/07 08:09:36;;;;;;;0.52;0.50;;;18.80;57.50;;;;;;6080056;23;20155;-83
2023/10/07 08:12:09;;;;;;;0.50;0.50;;;18.80;57.40;;;;;;6102094;23;20132;-84
2023/10/07 08:14:38;;;;;;;0.70;0.50;;;18.80;57.20;;;;;;6079770;23;20156;-85
2023/10/07 08:17:08;;;;;;;0.45;0.45;;;18.70;57.10;;;;;;6103926;23;20722;-83
2023/10/07 08:19:34;;;;;;;0.68;0.40;;;18.80;57.00;;;;;;6103749;23;20242;-84
2023/10/07 08:22:02;;;;;;;0.50;0.50;;;18.80;56.90;;;;;;6103432;23;20159;-85
2023/10/07 08:24:39;;;;;;;1.15;0.50;;;18.80;56.40;;;;;;6104633;23;20215;-84
2023/10/07 08:27:43;;;;;;;0.85;0.60;;;18.80;56.20;;;;;;6106799;23;20170;-84
2023/10/07 08:29:54;;;;;;;1.10;0.47;;;18.90;56.00;;;;;;6122195;23;20162;-84
2023/10/07 08:32:37;;;;;;;1.95;0.60;;;18.80;55.70;;;;;;6115940;23;20134;-84
2023/10/07 08:35:14;;;;;;;0.60;0.52;;;18.80;55.80;;;;;;6093662;23;20145;-84
2023/10/07 08:37:46;;;;;;;0.30;0.30;;;18.70;55.50;;;;;;6113368;23;20575;-84
2023/10/07 08:40:26;;;;;;;0.47;0.47;;;18.80;55.50;;;;;;6087332;23;20179;-85
2023/10/07 08:42:58;;;;;;;1.33;0.60;;;18.80;55.40;;;;;;6115423;23;20136;-84
2023/10/07 08:45:25;;;;;;;0.57;0.50;;;18.80;55.10;;;;;;6089258;23;20230;-86
2023/10/07 08:47:53;;;;;;;0.80;0.60;;;18.70;55.50;;;;;;6110564;23;20151;-85
2023/10/07 08:50:23;;;;;;;0.50;0.47;;;18.80;54.80;;;;;;6090169;23;20528;-84
2023/10/07 08:53:06;;;;;;;1.45;0.57;;;18.80;54.60;;;;;;6087829;23;20144;-85
2023/10/07 08:55:32;;;;;;;0.75;0.57;;;18.80;54.30;;;;;;6116216;23;20142;-85
2023/10/07 08:58:02;;;;;;;0.47;0.43;;;18.70;54.30;;;;;;6087309;23;20167;-84
2023/10/07 09:00:32;;;;;;;0.50;0.50;;;18.80;54.30;;;;;;6117897;23;20124;-86
2023/10/07 09:03:14;;;;;;;0.40;0.40;;;18.80;54.10;;;;;;6118535;23;20131;-85
2023/10/07 09:05:40;;;;;;;0.85;0.43;;;18.80;54.20;;;;;;6122869;23;20127;-86
2023/10/07 09:08:11;;;;;;;0.52;0.40;;;18.80;53.90;;;;;;6093436;23;20159;-84
2023/10/07 09:10:41;;;;;;;0.55;0.40;;;18.70;53.90;;;;;;6094720;23;20139;-83
2023/10/07 09:13:19;;;;;;;1.63;0.52;;;18.80;53.90;;;;;;6067346;23;20156;-84
2023/10/07 09:16:07;;;;;;;1.15;0.60;;;18.70;53.70;;;;;;6107411;23;20143;-86
2023/10/07 09:18:42;;;;;;;0.68;0.40;;;18.80;53.80;;;;;;6145697;23;20650;-84
2023/10/07 09:21:21;;;;;;;1.38;0.68;;;18.70;53.50;;;;;;6161501;23;20124;-85
2023/10/07 09:23:51;;;;;;;0.85;0.60;;;18.80;53.60;;;;;;6117269;23;20159;-84
2023/10/07 09:26:30;;;;;;;1.60;0.40;;;18.80;53.20;;;;;;6113919;23;20151;-83
2023/10/07 09:28:58;;;;;;;1.60;0.50;;;18.80;53.00;;;;;;6138412;23;20201;-84
2023/10/07 09:31:30;;;;;;;1.30;0.52;;;18.80;52.80;;;;;;6135608;23;20171;-83
2023/10/07 09:34:15;;;;;;;1.45;0.50;;;18.70;52.40;;;;;;6111924;23;20158;-84
2023/10/07 09:36:53;;;;;;;1.20;0.70;;;18.80;52.20;;;;;;6099591;23;20156;-82
2023/10/07 09:42:26;;;;;;;0.85;0.50;;;18.80;52.00;;;;;;6163181;23;20144;-85
2023/10/07 09:44:55;;;;;;;2.72;0.80;;;18.80;52.10;;;;;;6123131;23;20210;-84
2023/10/07 09:47:22;;;;;;;0.50;0.40;;;18.80;52.30;;;;;;6112945;23;20147;-84
2023/10/07 09:49:50;;;;;;;3.13;0.55;;;18.80;51.60;;;;;;6137309;23;20143;-83
2023/10/07 09:52:17;;;;;;;0.55;0.50;;;18.80;51.60;;;;;;6134606;23;20148;-84
2023/10/07 09:55:07;;;;;;;2.40;0.70;;;18.80;51.60;;;;;;6136510;23;20170;-84
2023/10/07 09:57:42;;;;;;;0.90;0.40;;;18.80;51.40;;;;;;6159871;23;20136;-85
2023/10/07 10:03:30;;;;;;;1.73;0.60;;;18.80;51.00;;;;;;6138056;23;20132;-84
2023/10/07 10:06:07;;;;;;;1.98;0.60;;;18.90;51.00;;;;;;6158831;23;20142;-83
2023/10/07 10:08:58;;;;;;;1.83;0.80;;;18.80;50.80;;;;;;6162048;23;20174;-84
2023/10/07 10:11:43;;;;;;;2.13;0.77;;;18.80;50.60;;;;;;6137451;23;20151;-83
2023/10/07 10:14:16;;;;;;;0.93;0.50;;;18.80;50.80;;;;;;6121198;23;20193;-84
2023/10/07 10:16:57;;;;;;;1.90;0.57;;;18.80;50.40;;;;;;6110097;23;20151;-84
2023/10/07 10:19:37;;;;;;;0.70;0.50;;;18.80;50.30;;;;;;6086881;23;20198;-89
2023/10/07 10:22:26;;;;;;;3.22;0.68;;;18.80;49.90;;;;;;6047409;23;20169;-88
2023/10/07 10:25:25;;;;;;;3.85;0.70;;;18.80;50.00;;;;;;5998433;23;20198;-89
2023/10/07 10:28:10;;;;;;;2.25;0.60;;;18.90;49.70;;;;;;5943032;24;20500;-87
2023/10/07 10:30:53;;;;;;;1.35;0.55;;;18.80;49.80;;;;;;5939377;24;20163;-88
2023/10/07 10:33:20;;;;;;;1.00;0.40;;;18.80;49.40;;;;;;5936127;24;20183;-87
2023/10/07 10:35:52;;;;;;;1.33;0.65;;;18.80;49.30;;;;;;5939780;24;20145;-85
2023/10/07 10:38:19;;;;;;;1.13;0.52;;;18.80;49.20;;;;;;5932368;24;20198;-87
2023/10/07 10:40:46;;;;;;;0.65;0.50;;;18.90;49.10;;;;;;5936380;24;20589;-87
2023/10/07 10:43:28;;;;;;;2.58;1.00;;;18.80;48.90;;;;;;5912462;24;20160;-87
2023/10/07 10:46:05;;;;;;;2.40;0.43;;;18.80;48.70;;;;;;5915761;24;20238;-86
2023/10/07 10:48:31;;;;;;;2.28;0.50;;;18.90;48.80;;;;;;5935777;24;20200;-86
2023/10/07 10:51:09;;;;;;;4.43;0.75;;;18.90;48.80;;;;;;5944082;24;20191;-87
2023/10/07 10:53:36;;;;;;;1.65;0.57;;;18.80;48.60;;;;;;5977291;23;20591;-86
2023/10/07 10:56:03;;;;;;;1.38;0.50;;;18.90;48.50;;;;;;5966598;23;20226;-87
2023/10/07 10:58:30;;;;;;;2.30;0.43;;;18.80;48.40;;;;;;5987694;23;20308;-86
2023/10/07 11:00:55;;;;;;;1.13;0.55;;;18.90;48.40;;;;;;5964965;23;20166;-87
2023/10/07 11:03:21;;;;;;;1.10;0.50;;;18.90;48.20;;;;;;6015119;23;20135;-86
2023/10/07 11:05:51;;;;;;;1.95;0.50;;;18.90;48.20;;;;;;6053177;23;20169;-88
2023/10/07 11:08:23;;;;;;;0.70;0.43;;;18.90;47.90;;;;;;6051441;23;20447;-86
2023/10/07 11:10:51;;;;;;;0.57;0.40;;;18.90;47.80;;;;;;6100330;23;20141;-85
2023/10/07 11:13:17;;;;;;;0.50;0.30;;;18.90;47.80;;;;;;6053736;23;20209;-84
2023/10/07 11:15:58;;;;;;;1.00;0.50;;;18.80;47.60;;;;;;6053593;23;20188;-85
2023/10/07 11:18:45;;;;;;;0.98;0.50;;;18.90;47.50;;;;;;6106278;23;20206;-86
2023/10/07 11:21:17;;;;;;;1.95;0.50;;;18.90;47.50;;;;;;6056663;23;20183;-85
2023/10/07 11:23:49;;;;;;;1.48;0.50;;;18.90;47.50;;;;;;6119073;23;20163;-84
2023/10/07 11:26:24;;;;;;;0.90;0.50;;;18.90;47.40;;;;;;6141552;23;20150;-85
2023/10/07 11:28:56;;;;;;;1.77;0.50;;;18.90;47.30;;;;;;6129158;23;20155;-86
2023/10/07 11:31:30;;;;;;;2.35;0.52;;;19.00;47.40;;;;;;6104121;23;20144;-86
2023/10/07 11:34:02;;;;;;;2.15;0.50;;;19.00;47.20;;;;;;6082745;23;20151;-84
2023/10/07 11:36:27;;;;;;;0.47;0.30;;;19.00;47.10;;;;;;6105100;23;20160;-87
2023/10/07 11:38:53;;;;;;;3.63;0.57;;;18.90;47.00;;;;;;6103410;23;20179;-86
2023/10/07 11:41:19;;;;;;;0.50;0.40;;;18.90;47.10;;;;;;6104948;23;20144;-83
2023/10/07 11:43:52;;;;;;;2.53;0.55;;;18.90;46.80;;;;;;6132790;23;20188;-84
2023/10/07 11:46:20;;;;;;;0.30;0.30;;;19.00;46.70;;;;;;6106786;23;20214;-83
2023/10/07 11:48:46;;;;;;;0.55;0.40;;;18.90;46.80;;;;;;6107933;23;20156;-87
2023/10/07 11:51:15;;;;;;;1.15;0.43;;;18.90;46.60;;;;;;6131463;23;20616;-85
2023/10/07 11:53:46;;;;;;;1.95;0.60;;;18.90;46.40;;;;;;6110740;23;20279;-87
2023/10/07 11:56:14;;;;;;;0.93;0.50;;;19.00;46.40;;;;;;6088237;23;20160;-86
2023/10/07 11:58:42;;;;;;;0.75;0.40;;;19.00;46.20;;;;;;6133434;23;20180;-84
2023/10/07 12:01:11;;;;;;;1.17;0.40;;;19.00;46.20;;;;;;6137502;23;20169;-87
2023/10/07 12:03:43;;;;;;;1.67;0.47;;;19.00;46.10;;;;;;6112218;23;20155;-85
2023/10/07 12:06:11;;;;;;;1.98;0.50;;;18.90;46.20;;;;;;6112578;23;20155;-86
2023/10/07 12:08:43;;;;;;;0.38;0.38;;;19.00;46.00;;;;;;6162033;23;20135;-86
2023/10/07 12:11:11;;;;;;;1.98;0.60;;;18.90;45.80;;;;;;6111803;23;20173;-86
2023/10/07 12:13:42;;;;;;;0.55;0.40;;;18.90;45.70;;;;;;6161729;23;20493;-86
2023/10/07 12:16:13;;;;;;;1.02;0.43;;;18.90;45.70;;;;;;6111825;23;20484;-86
2023/10/07 12:18:40;;;;;;;0.35;0.28;;;18.90;45.40;;;;;;6087764;23;20574;-86
2023/10/07 12:21:12;;;;;;;1.75;0.45;;;18.90;45.30;;;;;;6110142;23;20163;-86
2023/10/07 12:23:41;;;;;;;1.30;0.32;;;18.90;45.30;;;;;;6088101;23;20155;-87
2023/10/07 12:26:12;;;;;;;0.35;0.30;;;19.00;45.10;;;;;;6088352;23;20151;-86
2023/10/07 12:28:37;;;;;;;0.68;0.30;;;18.90;45.00;;;;;;6111611;23;20158;-86
2023/10/07 12:31:12;;;;;;;0.52;0.30;;;19.00;44.90;;;;;;6159452;23;20140;-84
2023/10/07 12:33:39;;;;;;;0.25;0.25;;;19.00;44.80;;;;;;6158923;23;20143;-85
2023/10/07 12:36:14;;;;;;;0.30;0.30;;;19.00;44.80;;;;;;6134688;23;20144;-86
2023/10/07 12:38:41;;;;;;;0.30;0.30;;;18.90;44.70;;;;;;6113419;23;20226;-86
2023/10/07 12:41:12;;;;;;;1.20;0.30;;;18.90;44.60;;;;;;6161235;23;20128;-87
2023/10/07 12:43:43;;;;;;;0.38;0.35;;;18.90;44.50;;;;;;6088221;23;20167;-86
2023/10/07 12:46:09;;;;;;;0.47;0.30;;;18.90;45.10;;;;;;6111589;23;20155;-87
2023/10/07 12:48:37;;;;;;;2.50;0.35;;;19.00;44.40;;;;;;6163710;23;20198;-86
2023/10/07 12:51:04;;;;;;;0.30;0.30;;;18.90;44.20;;;;;;6138075;23;20124;-86
2023/10/07 12:53:31;;;;;;;0.60;0.30;;;18.90;44.10;;;;;;6137083;23;20148;-87
2023/10/07 12:55:56;;;;;;;0.20;0.20;;;18.90;43.90;;;;;;6113349;23;20144;-86
2023/10/07 12:58:27;;;;;;;0.30;0.20;;;18.90;43.90;;;;;;6166902;23;20181;-85
2023/10/07 13:00:55;;;;;;;1.15;0.40;;;18.90;43.80;;;;;;6138445;23;20198;-85
2023/10/07 13:03:25;;;;;;;0.30;0.30;;;18.90;43.70;;;;;;6137840;23;20139;-85
2023/10/07 13:05:54;;;;;;;0.70;0.30;;;18.90;43.60;;;;;;6113820;23;20589;-85
2023/10/07 13:08:21;;;;;;;0.82;0.32;;;18.90;43.60;;;;;;6162674;23;20202;-84
2023/10/07 13:10:49;;;;;;;0.57;0.32;;;18.90;43.50;;;;;;6112446;23;20140;-85
2023/10/07 13:13:19;;;;;;;0.85;0.30;;;18.90;43.40;;;;;;6161005;23;20226;-85
2023/10/07 13:15:51;;;;;;;0.90;0.35;;;18.90;43.30;;;;;;6138439;23;20182;-85
2023/10/07 13:18:21;;;;;;;0.90;0.22;;;18.90;43.20;;;;;;6113865;23;20205;-86
2023/10/07 13:20:48;;;;;;;0.25;0.20;;;18.90;43.10;;;;;;6116431;23;20214;-86
2023/10/07 13:23:14;;;;;;;0.22;0.22;;;18.90;43.00;;;;;;6114407;23;20144;-86
2023/10/07 13:25:40;;;;;;;0.30;0.20;;;18.90;43.00;;;;;;6114444;23;20226;-86
2023/10/07 13:28:07;;;;;;;0.40;0.30;;;18.90;42.90;;;;;;6164229;23;20136;-86
2023/10/07 13:30:34;;;;;;;0.47;0.30;;;18.80;42.70;;;;;;6139206;23;20130;-86
2023/10/07 13:33:00;;;;;;;0.22;0.20;;;18.90;43.50;;;;;;6090107;23;20140;-85
2023/10/07 13:35:29;;;;;;;0.40;0.20;;;18.90;42.50;;;;;;6090734;23;20144;-86
2023/10/07 13:37:56;;;;;;;0.45;0.30;;;18.90;42.50;;;;;;6139789;23;20134;-86
2023/10/07 13:40:23;;;;;;;0.90;0.30;;;18.90;42.50;;;;;;6089054;23;20167;-86
2023/10/07 13:42:50;;;;;;;0.47;0.22;;;18.90;42.40;;;;;;6088276;23;20148;-86
2023/10/07 13:45:17;;;;;;;0.20;0.20;;;18.90;42.30;;;;;;6112997;23;20132;-86
2023/10/07 13:47:44;;;;;;;1.15;0.57;;;18.90;42.20;;;;;;6114676;23;20148;-86
2023/10/07 13:50:14;;;;;;;0.55;0.30;;;18.80;42.00;;;;;;6115413;23;20135;-86
2023/10/07 13:52:50;;;;;;;0.30;0.25;;;18.80;41.90;;;;;;6091109;23;20548;-86